Wetterdaten: Samstag, 13.03.2004
Datum Zeit Temp. A Sch. Temp. A Son. Feuchte A. Luftdruck Regen Wind Richtung Richtung Sonnenschein Helligkeit Taupunkt Windchill
13.03.2004 00:00 5,3 C 5,3 C 70 % 1013 hPa 0,0 l/m 1,1 m/s (1 Bft) O 90 0,00 min 0 lux 0,3 C 5,3 C
13.03.2004 00:05 5,4 C 5,4 C 70 % 1013 hPa 0,0 l/m 1,2 m/s (1 Bft) O 90 0,00 min 0 lux 0,4 C 5,4 C
13.03.2004 00:10 5,4 C 5,4 C 70 % 1013 hPa 0,0 l/m 0,9 m/s (0 Bft) O 85 0,00 min 0 lux 0,4 C 5,4 C
13.03.2004 00:15 5,4 C 5,4 C 70 % 1012 hPa 0,0 l/m 0,9 m/s (0 Bft) O-SO22.5 105 0,00 min 0 lux 0,4 C 5,4 C
13.03.2004 00:20 5,3 C 5,4 C 70 % 1012 hPa 0,0 l/m 0,0 m/s (0 Bft) O-SO 105 0,00 min 0 lux 0,3 C 5,3 C
13.03.2004 00:25 5,3 C 5,4 C 71 % 1012 hPa 0,0 l/m 1,6 m/s (1 Bft) O-SO 105 0,00 min 0 lux 0,5 C 5,3 C
13.03.2004 00:30 5,4 C 5,4 C 71 % 1012 hPa 0,0 l/m 2,0 m/s (1 Bft) O-SO22.5 120 0,00 min 0 lux 0,6 C 4,6 C
13.03.2004 00:35 5,4 C 5,4 C 71 % 1012 hPa 0,0 l/m 2,2 m/s (1 Bft) O-SO 115 0,00 min 0 lux 0,6 C 4,2 C
13.03.2004 00:40 5,4 C 5,4 C 71 % 1012 hPa 0,0 l/m 1,7 m/s (1 Bft) O-SO 115 0,00 min 0 lux 0,6 C 5,4 C
13.03.2004 00:45 5,4 C 5,4 C 72 % 1012 hPa 0,0 l/m 2,3 m/s (1 Bft) SO22.5 125 0,00 min 0 lux 0,8 C 3,7 C
13.03.2004 00:50 5,4 C 5,5 C 73 % 1012 hPa 0,0 l/m 2,9 m/s (1 Bft) SO45 140 0,00 min 0 lux 1,0 C 2,3 C
13.03.2004 00:55 5,5 C 5,6 C 73 % 1012 hPa 0,0 l/m 2,1 m/s (1 Bft) SO22.5 140 0,00 min 0 lux 1,1 C 4,6 C
13.03.2004 01:00 5,7 C 5,6 C 73 % 1012 hPa 0,0 l/m 2,5 m/s (1 Bft) O45 95 0,00 min 0 lux 1,2 C 3,5 C
13.03.2004 01:05 5,7 C 5,6 C 74 % 1012 hPa 0,0 l/m 3,1 m/s (1 Bft) O-SO45 105 0,00 min 0 lux 1,4 C 2,2 C
13.03.2004 01:10 5,7 C 5,6 C 74 % 1012 hPa 0,0 l/m 2,4 m/s (1 Bft) O67.5 85 0,00 min 0 lux 1,4 C 3,7 C
13.03.2004 01:15 5,7 C 5,7 C 74 % 1012 hPa 0,4 l/m 2,3 m/s (1 Bft) NW 305 0,00 min 0 lux 1,4 C 4,3 C
13.03.2004 01:20 5,6 C 5,7 C 75 % 1013 hPa 0,0 l/m 0,4 m/s (0 Bft) O-SO45 115 0,00 min 0 lux 1,5 C 5,6 C
13.03.2004 01:25 5,5 C 5,7 C 76 % 1013 hPa 0,0 l/m 0,1 m/s (0 Bft) SO22.5 130 0,00 min 0 lux 1,6 C 5,5 C
13.03.2004 01:30 5,4 C 5,7 C 77 % 1013 hPa 0,0 l/m 1,1 m/s (0 Bft) S-SW22.5 200 0,00 min 0 lux 1,7 C 5,4 C
13.03.2004 01:35 5,3 C 5,7 C 78 % 1013 hPa 0,0 l/m 2,6 m/s (1 Bft) NW22.5 305 0,00 min 0 lux 1,8 C 2,8 C
13.03.2004 01:40 5,3 C 5,7 C 79 % 1013 hPa 0,0 l/m 1,7 m/s (1 Bft) SW67.5 230 0,00 min 0 lux 2,0 C 5,3 C
13.03.2004 01:45 5,2 C 5,7 C 81 % 1013 hPa 0,0 l/m 2,4 m/s (1 Bft) NW22.5 315 0,00 min 0 lux 2,2 C 3,3 C
13.03.2004 01:50 5,2 C 5,7 C 82 % 1013 hPa 0,4 l/m 2,7 m/s (1 Bft) W-NW45 290 0,00 min 0 lux 2,4 C 2,6 C
13.03.2004 01:55 5,2 C 5,7 C 82 % 1013 hPa 0,0 l/m 1,7 m/s (1 Bft) S67.5 180 0,00 min 0 lux 2,4 C 5,2 C
13.03.2004 02:00 5,2 C 5,7 C 83 % 1013 hPa 0,0 l/m 0,3 m/s (0 Bft) W-NW22.5 290 0,00 min 0 lux 2,6 C 5,2 C
13.03.2004 02:05 5,2 C 5,6 C 84 % 1013 hPa 0,0 l/m 0,2 m/s (0 Bft) NW22.5 320 0,00 min 0 lux 2,7 C 5,2 C
13.03.2004 02:10 5,2 C 5,7 C 84 % 1013 hPa 0,0 l/m 3,1 m/s (1 Bft) NW45 305 0,00 min 0 lux 2,7 C 1,6 C
13.03.2004 02:15 5,2 C 5,6 C 84 % 1013 hPa 0,0 l/m 0,3 m/s (0 Bft) S-SO67.5 165 0,00 min 0 lux 2,7 C 5,2 C
13.03.2004 02:20 5,1 C 5,6 C 85 % 1013 hPa 0,0 l/m 0,0 m/s (0 Bft) S-SO67.5 150 0,00 min 0 lux 2,8 C 5,1 C
13.03.2004 02:25 5,2 C 5,6 C 85 % 1013 hPa 0,0 l/m 0,0 m/s (0 Bft) O45 95 0,00 min 0 lux 2,9 C 5,2 C
13.03.2004 02:30 5,1 C 5,6 C 85 % 1013 hPa 0,0 l/m 1,2 m/s (1 Bft) O22.5 80 0,00 min 0 lux 2,8 C 5,1 C
13.03.2004 02:35 5,1 C 5,6 C 85 % 1013 hPa 0,0 l/m 0,0 m/s (0 Bft) O-NO 70 0,00 min 0 lux 2,8 C 5,1 C
13.03.2004 02:40 5,2 C 5,6 C 86 % 1013 hPa 0,0 l/m 1,3 m/s (1 Bft) O-SO22.5 110 0,00 min 0 lux 3,1 C 5,2 C
13.03.2004 02:45 5,2 C 5,6 C 86 % 1013 hPa 0,0 l/m 3,3 m/s (1 Bft) SO22.5 125 0,00 min 0 lux 3,1 C 1,0 C
13.03.2004 02:50 5,2 C 5,6 C 86 % 1013 hPa 0,0 l/m 0,0 m/s (0 Bft) O-SO22.5 120 0,00 min 0 lux 3,1 C 5,2 C
13.03.2004 02:55 5,3 C 5,6 C 86 % 1013 hPa 0,0 l/m 1,1 m/s (0 Bft) O45 95 0,00 min 0 lux 3,2 C 5,3 C
13.03.2004 03:00 5,3 C 5,6 C 86 % 1013 hPa 0,0 l/m 1,4 m/s (1 Bft) O22.5 85 0,00 min 0 lux 3,2 C 5,3 C
13.03.2004 03:05 5,3 C 5,6 C 86 % 1013 hPa 0,0 l/m 1,4 m/s (1 Bft) O22.5 85 0,00 min 0 lux 3,2 C 5,3 C
13.03.2004 03:10 5,3 C 5,6 C 86 % 1013 hPa 0,0 l/m 1,4 m/s (1 Bft) O-NO45 70 0,00 min 0 lux 3,2 C 5,3 C
13.03.2004 03:15 5,4 C 5,6 C 86 % 1013 hPa 0,0 l/m 2,0 m/s (1 Bft) O-SO22.5 105 0,00 min 0 lux 3,3 C 4,7 C
13.03.2004 03:20 5,5 C 5,7 C 86 % 1013 hPa 0,0 l/m 1,6 m/s (1 Bft) O45 85 0,00 min 0 lux 3,3 C 5,5 C
13.03.2004 03:25 5,4 C 5,7 C 86 % 1013 hPa 0,0 l/m 1,6 m/s (1 Bft) O45 85 0,00 min 0 lux 3,3 C 5,4 C
13.03.2004 03:30 5,3 C 5,7 C 86 % 1013 hPa 0,0 l/m 1,1 m/s (0 Bft) O-SO 105 0,00 min 0 lux 3,2 C 5,3 C
13.03.2004 03:35 5,3 C 5,7 C 86 % 1013 hPa 0,0 l/m 0,3 m/s (0 Bft) O-SO 105 0,00 min 0 lux 3,2 C 5,3 C
13.03.2004 03:40 5,3 C 5,6 C 86 % 1013 hPa 0,0 l/m 0,0 m/s (0 Bft) O-SO 105 0,00 min 0 lux 3,2 C 5,3 C
13.03.2004 03:45 5,3 C 5,6 C 86 % 1013 hPa 0,0 l/m 0,0 m/s (0 Bft) O-SO 105 0,00 min 0 lux 3,2 C 5,3 C
13.03.2004 03:50 5,3 C 5,6 C 86 % 1013 hPa 0,0 l/m 0,0 m/s (0 Bft) O-SO 105 0,00 min 0 lux 3,2 C 5,3 C
13.03.2004 03:55 5,1 C 5,6 C 86 % 1013 hPa 0,0 l/m 0,0 m/s (0 Bft) O-SO 105 0,00 min 0 lux 3,0 C 5,1 C
13.03.2004 04:00 5,0 C 5,6 C 86 % 1013 hPa 0,0 l/m 0,0 m/s (0 Bft) O-SO 105 0,00 min 0 lux 2,9 C 5,0 C
13.03.2004 04:05 5,0 C 5,5 C 86 % 1013 hPa 0,0 l/m 0,0 m/s (0 Bft) O-SO 105 0,00 min 0 lux 2,9 C 5,0 C
13.03.2004 04:10 4,9 C 5,5 C 87 % 1013 hPa 0,0 l/m 0,0 m/s (0 Bft) O-SO 105 0,00 min 0 lux 2,9 C 4,9 C
13.03.2004 04:15 4,8 C 5,5 C 87 % 1013 hPa 0,0 l/m 0,0 m/s (0 Bft) O-SO 105 0,00 min 0 lux 2,8 C 4,8 C
13.03.2004 04:20 4,8 C 5,5 C 87 % 1013 hPa 0,0 l/m 0,0 m/s (0 Bft) O-SO 105 0,00 min 0 lux 2,8 C 4,8 C
13.03.2004 04:25 4,8 C 5,5 C 87 % 1013 hPa 0,0 l/m 0,0 m/s (0 Bft) O-SO 105 0,00 min 0 lux 2,8 C 4,8 C
13.03.2004 04:30 4,8 C 5,5 C 87 % 1013 hPa 0,0 l/m 0,2 m/s (0 Bft) O22.5 95 0,00 min 0 lux 2,8 C 4,8 C
13.03.2004 04:35 4,8 C 5,4 C 88 % 1013 hPa 0,0 l/m 1,0 m/s (0 Bft) O-NO 65 0,00 min 0 lux 3,0 C 4,8 C
13.03.2004 04:40 4,8 C 5,4 C 88 % 1013 hPa 0,0 l/m 0,0 m/s (0 Bft) O-NO 65 0,00 min 0 lux 3,0 C 4,8 C
13.03.2004 04:45 4,8 C 5,4 C 88 % 1013 hPa 0,0 l/m 0,0 m/s (0 Bft) O-NO 65 0,00 min 0 lux 3,0 C 4,8 C
13.03.2004 04:50 4,8 C 5,4 C 88 % 1013 hPa 0,0 l/m 0,0 m/s (0 Bft) O-NO 65 0,00 min 0 lux 3,0 C 4,8 C
13.03.2004 04:55 4,8 C 5,4 C 88 % 1013 hPa 0,0 l/m 0,0 m/s (0 Bft) O-NO 65 0,00 min 0 lux 3,0 C 4,8 C
13.03.2004 05:00 4,8 C 5,3 C 88 % 1013 hPa 0,0 l/m 0,0 m/s (0 Bft) O-NO 65 0,00 min 0 lux 3,0 C 4,8 C
13.03.2004 05:05 4,7 C 5,3 C 88 % 1013 hPa 0,0 l/m 0,0 m/s (0 Bft) O-NO 65 0,00 min 0 lux 2,9 C 4,7 C
13.03.2004 05:10 4,6 C 5,2 C 88 % 1013 hPa 0,0 l/m 0,0 m/s (0 Bft) O-NO 65 0,00 min 0 lux 2,8 C 4,6 C
13.03.2004 05:15 4,6 C 5,2 C 88 % 1013 hPa 0,0 l/m 0,0 m/s (0 Bft) O-NO 65 0,00 min 0 lux 2,8 C 4,6 C
13.03.2004 05:20 4,6 C 5,2 C 88 % 1013 hPa 0,0 l/m 0,0 m/s (0 Bft) O-NO 65 0,00 min 0 lux 2,8 C 4,6 C
13.03.2004 05:25 4,6 C 5,2 C 88 % 1013 hPa 0,0 l/m 0,0 m/s (0 Bft) O-NO 65 0,00 min 0 lux 2,8 C 4,6 C
13.03.2004 05:30 4,6 C 5,2 C 88 % 1013 hPa 0,0 l/m 0,0 m/s (0 Bft) O-NO 65 0,00 min 0 lux 2,8 C 4,6 C
13.03.2004 05:35 4,6 C 5,2 C 88 % 1013 hPa 0,0 l/m 0,0 m/s (0 Bft) O-NO 65 0,00 min 0 lux 2,8 C 4,6 C
13.03.2004 05:40 4,6 C 5,2 C 88 % 1013 hPa 0,0 l/m 0,0 m/s (0 Bft) O-NO 65 0,00 min 0 lux 2,8 C 4,6 C
13.03.2004 05:45 4,6 C 5,2 C 88 % 1013 hPa 0,0 l/m 0,0 m/s (0 Bft) O-NO 65 0,00 min 0 lux 2,8 C 4,6 C
13.03.2004 05:50 4,7 C 5,2 C 88 % 1013 hPa 0,0 l/m 0,0 m/s (0 Bft) O-NO 65 0,00 min 0 lux 2,9 C 4,7 C
13.03.2004 05:55 4,6 C 5,2 C 88 % 1013 hPa 0,0 l/m 0,0 m/s (0 Bft) O-NO 65 0,00 min 0 lux 2,8 C 4,6 C
13.03.2004 06:00 4,6 C 5,2 C 88 % 1013 hPa 0,0 l/m 0,0 m/s (0 Bft) O-NO 65 0,00 min 0 lux 2,8 C 4,6 C
13.03.2004 06:05 4,5 C 5,2 C 88 % 1013 hPa 0,0 l/m 0,0 m/s (0 Bft) O-NO 65 0,00 min 0 lux 2,7 C 4,5 C
13.03.2004 06:10 4,5 C 5,2 C 88 % 1013 hPa 0,0 l/m 0,0 m/s (0 Bft) O-NO 65 0,00 min 0 lux 2,7 C 4,5 C
13.03.2004 06:15 4,5 C 5,2 C 88 % 1013 hPa 0,0 l/m 0,0 m/s (0 Bft) O-NO 65 0,00 min 0 lux 2,7 C 4,5 C
13.03.2004 06:20 4,5 C 5,1 C 88 % 1013 hPa 0,0 l/m 0,0 m/s (0 Bft) O-NO 65 0,00 min 0 lux 2,7 C 4,5 C
13.03.2004 06:25 4,5 C 5,1 C 88 % 1013 hPa 0,0 l/m 0,0 m/s (0 Bft) O-NO 65 0,00 min 0 lux 2,7 C 4,5 C
13.03.2004 06:30 4,5 C 5,1 C 88 % 1013 hPa 0,0 l/m 0,0 m/s (0 Bft) O-NO 65 0,00 min 0 lux 2,7 C 4,5 C
13.03.2004 06:35 4,5 C 5,1 C 88 % 1013 hPa 0,0 l/m 0,0 m/s (0 Bft) O-NO 65 0,00 min 42 lux 2,7 C 4,5 C
13.03.2004 06:40 4,5 C 5,1 C 88 % 1013 hPa 0,0 l/m 0,0 m/s (0 Bft) O-NO 65 0,00 min 61 lux 2,7 C 4,5 C
13.03.2004 06:45 4,5 C 5,1 C 88 % 1013 hPa 0,0 l/m 0,0 m/s (0 Bft) O-NO 65 0,00 min 83 lux 2,7 C 4,5 C
13.03.2004 06:50 4,5 C 5,1 C 88 % 1014 hPa 0,0 l/m 0,0 m/s (0 Bft) O-NO 65 0,00 min 97 lux 2,7 C 4,5 C
13.03.2004 06:55 4,5 C 5,1 C 88 % 1014 hPa 0,0 l/m 0,0 m/s (0 Bft) O-NO 65 0,00 min 114 lux 2,7 C 4,5 C
13.03.2004 07:00 4,7 C 5,1 C 88 % 1014 hPa 0,4 l/m 0,0 m/s (0 Bft) O-NO 65 0,00 min 275 lux 2,9 C 4,7 C
13.03.2004 07:05 4,7 C 5,1 C 88 % 1014 hPa 0,0 l/m 0,0 m/s (0 Bft) O-NO 65 0,00 min 730 lux 2,9 C 4,7 C
13.03.2004 07:10 4,8 C 5,1 C 89 % 1014 hPa 0,0 l/m 0,0 m/s (0 Bft) O-NO 65 0,00 min 977 lux 3,1 C 4,8 C
13.03.2004 07:15 4,8 C 5,2 C 89 % 1014 hPa 0,0 l/m 0,0 m/s (0 Bft) O-NO 65 0,00 min 1,07 klux 3,1 C 4,8 C
13.03.2004 07:20 4,7 C 5,2 C 89 % 1014 hPa 0,0 l/m 0,0 m/s (0 Bft) O-NO 65 0,00 min 1,16 klux 3,0 C 4,7 C
13.03.2004 07:25 4,7 C 5,2 C 89 % 1014 hPa 0,0 l/m 0,0 m/s (0 Bft) O-NO 65 0,00 min 1,00 klux 3,0 C 4,7 C
13.03.2004 07:30 4,8 C 5,2 C 89 % 1014 hPa 0,0 l/m 0,0 m/s (0 Bft) O-NO 65 0,00 min 977 lux 3,1 C 4,8 C
13.03.2004 07:35 4,8 C 5,2 C 89 % 1014 hPa 0,0 l/m 0,0 m/s (0 Bft) O-NO 65 0,00 min 1,45 klux 3,1 C 4,8 C
13.03.2004 07:40 4,9 C 5,3 C 89 % 1014 hPa 0,0 l/m 0,0 m/s (0 Bft) O-NO 65 0,00 min 1,80 klux 3,2 C 4,9 C
13.03.2004 07:45 5,0 C 5,3 C 88 % 1014 hPa 0,0 l/m 0,0 m/s (0 Bft) O-NO 65 0,00 min 3,05 klux 3,2 C 5,0 C
13.03.2004 07:50 5,0 C 5,4 C 88 % 1014 hPa 0,4 l/m 0,2 m/s (0 Bft) O 100 0,00 min 3,65 klux 3,2 C 5,0 C
13.03.2004 07:55 5,0 C 5,4 C 88 % 1014 hPa 0,0 l/m 0,0 m/s (0 Bft) O 95 0,00 min 3,78 klux 3,2 C 5,0 C
13.03.2004 08:00 5,5 C 5,5 C 89 % 1014 hPa 0,0 l/m 1,8 m/s (1 Bft) O45 95 0,00 min 2,98 klux 3,8 C 5,5 C
13.03.2004 08:05 5,3 C 5,5 C 89 % 1014 hPa 0,0 l/m 0,1 m/s (0 Bft) SO67.5 140 0,00 min 1,98 klux 3,6 C 5,3 C
13.03.2004 08:10 5,3 C 5,5 C 89 % 1014 hPa 0,0 l/m 0,0 m/s (0 Bft) SW 225 0,00 min 2,39 klux 3,6 C 5,3 C
13.03.2004 08:15 5,6 C 5,6 C 89 % 1014 hPa 0,0 l/m 1,8 m/s (1 Bft) S-SO22.5 155 0,00 min 3,38 klux 3,9 C 5,6 C
13.03.2004 08:20 5,6 C 5,7 C 89 % 1014 hPa 0,0 l/m 0,0 m/s (0 Bft) SO 130 0,00 min 3,30 klux 3,9 C 5,6 C
13.03.2004 08:25 5,8 C 5,8 C 89 % 1015 hPa 0,0 l/m 1,2 m/s (1 Bft) S45 180 0,00 min 3,54 klux 4,1 C 5,8 C
13.03.2004 08:30 5,9 C 5,9 C 89 % 1015 hPa 0,0 l/m 3,5 m/s (1 Bft) SW45 220 0,00 min 3,81 klux 4,2 C 1,4 C
13.03.2004 08:35 6,0 C 6,0 C 88 % 1015 hPa 0,0 l/m 2,9 m/s (1 Bft) SW45 215 0,00 min 4,32 klux 4,2 C 3,0 C
13.03.2004 08:40 6,1 C 6,1 C 88 % 1015 hPa 0,0 l/m 2,4 m/s (1 Bft) SW22.5 230 0,00 min 5,21 klux 4,3 C 4,3 C
13.03.2004 08:45 6,1 C 6,2 C 87 % 1015 hPa 0,0 l/m 2,2 m/s (1 Bft) S-SW22.5 210 0,00 min 3,64 klux 4,1 C 4,9 C
13.03.2004 08:50 6,2 C 6,2 C 87 % 1015 hPa 0,0 l/m 3,0 m/s (1 Bft) SW22.5 220 0,00 min 5,14 klux 4,2 C 2,9 C
13.03.2004 08:55 6,3 C 6,4 C 87 % 1015 hPa 0,0 l/m 3,5 m/s (1 Bft) S45 190 0,00 min 6,05 klux 4,3 C 1,9 C
13.03.2004 09:00 6,3 C 6,5 C 87 % 1015 hPa 0,0 l/m 2,2 m/s (1 Bft) S-SW45 205 0,00 min 7,42 klux 4,3 C 5,0 C
13.03.2004 09:05 6,5 C 6,5 C 87 % 1015 hPa 0,0 l/m 3,8 m/s (1 Bft) SW45 225 0,00 min 8,73 klux 4,5 C 1,7 C
13.03.2004 09:10 6,6 C 6,6 C 86 % 1015 hPa 0,0 l/m 6,0 m/s (2 Bft) SW67.5 230 0,00 min 7,98 klux 4,4 C -1,6 C
13.03.2004 09:15 6,6 C 6,7 C 86 % 1015 hPa 0,0 l/m 5,1 m/s (1 Bft) SW67.5 215 0,00 min 7,00 klux 4,4 C -0,4 C
13.03.2004 09:20 6,6 C 6,7 C 86 % 1015 hPa 0,0 l/m 5,6 m/s (1 Bft) SW45 225 0,00 min 4,88 klux 4,4 C -1,2 C
13.03.2004 09:25 6,6 C 6,8 C 86 % 1015 hPa 0,0 l/m 5,3 m/s (1 Bft) SW45 225 0,00 min 4,88 klux 4,4 C -0,7 C
13.03.2004 09:30 6,6 C 6,8 C 85 % 1015 hPa 0,0 l/m 5,0 m/s (1 Bft) SW22.5 230 0,00 min 4,66 klux 4,3 C -0,4 C
13.03.2004 09:35 6,6 C 6,9 C 85 % 1015 hPa 0,0 l/m 4,4 m/s (1 Bft) SW67.5 230 0,00 min 3,94 klux 4,3 C 0,7 C
13.03.2004 09:40 6,6 C 6,9 C 86 % 1015 hPa 0,0 l/m 4,4 m/s (1 Bft) SW67.5 230 0,00 min 3,64 klux 4,4 C 0,7 C
13.03.2004 09:45 6,7 C 6,9 C 85 % 1015 hPa 0,0 l/m 6,2 m/s (2 Bft) SW45 230 0,00 min 4,41 klux 4,4 C -1,8 C
13.03.2004 09:50 6,7 C 7,0 C 85 % 1015 hPa 0,0 l/m 4,4 m/s (1 Bft) SW22.5 220 0,00 min 5,29 klux 4,4 C 0,7 C
13.03.2004 09:55 6,7 C 7,0 C 85 % 1015 hPa 0,0 l/m 5,3 m/s (1 Bft) SW45 225 0,00 min 8,14 klux 4,4 C -0,6 C
13.03.2004 10:00 6,7 C 7,0 C 85 % 1016 hPa 0,0 l/m 6,3 m/s (2 Bft) SW67.5 225 0,00 min 5,53 klux 4,4 C -2,0 C
13.03.2004 10:05 6,8 C 7,0 C 85 % 1015 hPa 0,0 l/m 4,2 m/s (1 Bft) SW45 225 0,00 min 6,22 klux 4,5 C 1,2 C
13.03.2004 10:10 6,8 C 7,1 C 85 % 1016 hPa 0,0 l/m 6,6 m/s (2 Bft) SW45 230 0,00 min 6,01 klux 4,5 C -2,1 C
13.03.2004 10:15 6,8 C 7,1 C 85 % 1016 hPa 0,0 l/m 5,1 m/s (1 Bft) SW45 225 0,00 min 5,97 klux 4,5 C -0,2 C
13.03.2004 10:20 6,8 C 7,1 C 84 % 1016 hPa 0,0 l/m 3,8 m/s (1 Bft) SW67.5 220 0,00 min 6,43 klux 4,3 C 2,0 C
13.03.2004 10:25 6,9 C 7,1 C 84 % 1016 hPa 0,0 l/m 3,5 m/s (1 Bft) SW45 225 0,00 min 9,3 klux 4,4 C 2,7 C
13.03.2004 10:30 7,0 C 7,2 C 84 % 1016 hPa 0,0 l/m 3,6 m/s (1 Bft) SW22.5 215 0,00 min 10,6 klux 4,5 C 2,5 C
13.03.2004 10:35 7,0 C 7,2 C 83 % 1016 hPa 0,0 l/m 3,5 m/s (1 Bft) SW45 230 0,00 min 9,2 klux 4,3 C 2,7 C
13.03.2004 10:40 7,0 C 7,2 C 83 % 1016 hPa 0,0 l/m 4,2 m/s (1 Bft) SW45 215 0,00 min 8,95 klux 4,3 C 1,5 C
13.03.2004 10:45 7,1 C 7,2 C 83 % 1016 hPa 0,0 l/m 3,7 m/s (1 Bft) SW45 230 0,00 min 9,1 klux 4,4 C 2,4 C
13.03.2004 10:50 7,1 C 7,3 C 83 % 1016 hPa 0,0 l/m 5,3 m/s (1 Bft) SW45 225 0,00 min 12,7 klux 4,4 C -0,2 C
13.03.2004 10:55 7,2 C 7,3 C 83 % 1016 hPa 0,0 l/m 4,2 m/s (1 Bft) SW45 235 0,00 min 12,9 klux 4,5 C 1,7 C
13.03.2004 11:00 7,3 C 7,3 C 83 % 1016 hPa 0,0 l/m 2,6 m/s (1 Bft) SW45 230 0,00 min 15,6 klux 4,6 C 5,0 C
13.03.2004 11:05 7,4 C 7,4 C 83 % 1016 hPa 0,0 l/m 3,8 m/s (1 Bft) SW45 215 0,00 min 15,3 klux 4,7 C 2,7 C
13.03.2004 11:10 7,4 C 7,5 C 83 % 1016 hPa 0,0 l/m 5,5 m/s (1 Bft) SW22.5 225 0,00 min 11,5 klux 4,7 C 0,0 C
13.03.2004 11:15 7,4 C 7,5 C 83 % 1016 hPa 0,0 l/m 3,7 m/s (1 Bft) SW45 235 0,00 min 18,6 klux 4,7 C 2,8 C
13.03.2004 11:20 7,4 C 7,6 C 83 % 1016 hPa 0,0 l/m 4,0 m/s (1 Bft) SW22.5 235 0,00 min 16,6 klux 4,7 C 2,3 C
13.03.2004 11:25 7,5 C 7,6 C 83 % 1016 hPa 0,0 l/m 3,3 m/s (1 Bft) W-SW67.5 240 0,00 min 13,1 klux 4,8 C 3,7 C
13.03.2004 11:30 7,5 C 7,6 C 82 % 1016 hPa 0,0 l/m 3,9 m/s (1 Bft) W-SW45 240 0,00 min 14,4 klux 4,6 C 2,5 C
13.03.2004 11:35 7,6 C 7,6 C 82 % 1017 hPa 0,0 l/m 3,5 m/s (1 Bft) SW45 225 0,00 min 15,4 klux 4,7 C 3,4 C
13.03.2004 11:40 7,6 C 7,7 C 82 % 1017 hPa 0,0 l/m 4,6 m/s (1 Bft) SW45 230 0,00 min 15,8 klux 4,7 C 1,5 C
13.03.2004 11:45 7,7 C 7,7 C 82 % 1017 hPa 0,0 l/m 3,9 m/s (1 Bft) W-SW45 250 0,00 min 16,3 klux 4,8 C 2,8 C
13.03.2004 11:50 7,8 C 7,8 C 82 % 1017 hPa 0,0 l/m 2,9 m/s (1 Bft) SW67.5 230 0,00 min 17,2 klux 4,9 C 4,8 C
13.03.2004 11:55 7,8 C 7,9 C 82 % 1017 hPa 0,0 l/m 3,4 m/s (1 Bft) SW45 230 0,00 min 17,0 klux 4,9 C 3,9 C
13.03.2004 12:00 7,9 C 8,0 C 82 % 1017 hPa 0,4 l/m 3,0 m/s (1 Bft) SW45 225 0,00 min 20,5 klux 5,0 C 4,8 C
13.03.2004 12:05 8,0 C 8,0 C 81 % 1017 hPa 0,0 l/m 4,2 m/s (1 Bft) SW67.5 225 0,00 min 24,5 klux 4,9 C 2,7 C
13.03.2004 12:10 8,3 C 8,1 C 81 % 1017 hPa 0,0 l/m 4,5 m/s (1 Bft) SW45 230 0,00 min 26,5 klux 5,2 C 2,6 C
13.03.2004 12:15 8,2 C 8,2 C 80 % 1017 hPa 0,0 l/m 4,1 m/s (1 Bft) SW45 230 0,00 min 23,3 klux 5,0 C 3,0 C
13.03.2004 12:20 8,4 C 8,3 C 80 % 1017 hPa 0,0 l/m 4,3 m/s (1 Bft) SW45 230 0,00 min 22,7 klux 5,2 C 3,1 C
13.03.2004 12:25 8,3 C 8,2 C 79 % 1017 hPa 0,0 l/m 4,7 m/s (1 Bft) SW45 230 0,00 min 18,3 klux 4,9 C 2,3 C
13.03.2004 12:30 8,4 C 8,2 C 80 % 1017 hPa 0,0 l/m 4,9 m/s (1 Bft) SW45 220 0,00 min 21,4 klux 5,2 C 2,1 C
13.03.2004 12:35 8,4 C 8,2 C 79 % 1017 hPa 0,0 l/m 4,3 m/s (1 Bft) SW45 225 0,00 min 22,3 klux 5,0 C 2,9 C
13.03.2004 12:40 8,6 C 8,4 C 79 % 1017 hPa 0,0 l/m 4,6 m/s (1 Bft) SW45 225 0,00 min 29,3 klux 5,2 C 2,8 C
13.03.2004 12:45 8,9 C 8,5 C 78 % 1017 hPa 0,0 l/m 4,9 m/s (1 Bft) SW67.5 230 0,00 min 30,9 klux 5,3 C 2,7 C
13.03.2004 12:50 9,1 C 8,7 C 76 % 1017 hPa 0,0 l/m 3,9 m/s (1 Bft) SW45 220 0,00 min 33,0 klux 5,1 C 4,4 C
13.03.2004 12:55 9,1 C 8,9 C 76 % 1017 hPa 0,0 l/m 4,7 m/s (1 Bft) SW45 220 0,00 min 32,4 klux 5,1 C 3,3 C
13.03.2004 13:00 9,1 C 8,9 C 75 % 1017 hPa 0,0 l/m 5,0 m/s (1 Bft) SW45 220 0,00 min 32,6 klux 4,9 C 2,8 C
13.03.2004 13:05 9,1 C 9,2 C 75 % 1017 hPa 0,0 l/m 5,9 m/s (2 Bft) SW67.5 220 0,00 min 43,2 klux 4,9 C 1,7 C
13.03.2004 13:10 9,4 C 9,6 C 74 % 1017 hPa 0,0 l/m 4,8 m/s (1 Bft) SW45 220 0,00 min 41,7 klux 5,0 C 3,6 C
13.03.2004 13:15 9,6 C 9,8 C 74 % 1017 hPa 0,0 l/m 4,4 m/s (1 Bft) SW45 230 5,00 min 60,6 klux 5,2 C 4,4 C
13.03.2004 13:20 10,1 C 10,4 C 72 % 1017 hPa 0,0 l/m 4,7 m/s (1 Bft) SW45 230 5,00 min 59,4 klux 5,3 C 4,5 C
13.03.2004 13:25 10,1 C 10,8 C 72 % 1017 hPa 0,0 l/m 5,9 m/s (2 Bft) SW45 215 5,00 min 55,2 klux 5,3 C 3,0 C
13.03.2004 13:30 10,5 C 11,2 C 71 % 1017 hPa 0,0 l/m 3,6 m/s (1 Bft) S-SW45 210 5,00 min 66,7 klux 5,5 C 6,6 C
13.03.2004 13:35 10,7 C 11,6 C 70 % 1017 hPa 0,0 l/m 5,6 m/s (1 Bft) S67.5 190 0,00 min 37,5 klux 5,5 C 4,2 C
13.03.2004 13:40 10,4 C 11,4 C 69 % 1017 hPa 0,0 l/m 4,6 m/s (1 Bft) SW45 220 0,00 min 37,5 klux 5,0 C 5,0 C
13.03.2004 13:45 10,3 C 11,4 C 68 % 1017 hPa 0,0 l/m 4,3 m/s (1 Bft) S67.5 185 0,00 min 38,5 klux 4,7 C 5,3 C
13.03.2004 13:50 10,4 C 11,4 C 67 % 1017 hPa 0,0 l/m 5,2 m/s (1 Bft) SW45 215 0,00 min 38,5 klux 4,5 C 4,2 C
13.03.2004 13:55 10,1 C 11,3 C 68 % 1017 hPa 0,0 l/m 4,4 m/s (1 Bft) SW45 230 0,00 min 34,2 klux 4,5 C 4,8 C
13.03.2004 14:00 10,3 C 11,2 C 69 % 1017 hPa 0,0 l/m 3,5 m/s (1 Bft) S-SW45 210 0,00 min 24,2 klux 4,9 C 6,5 C
13.03.2004 14:05 10,1 C 11,0 C 69 % 1017 hPa 0,0 l/m 3,5 m/s (1 Bft) S-SW45 210 0,00 min 18,1 klux 4,7 C 6,3 C
13.03.2004 14:10 10,1 C 10,9 C 68 % 1017 hPa 0,0 l/m 4,6 m/s (1 Bft) S-SW67.5 210 0,00 min 22,1 klux 4,5 C 4,7 C
13.03.2004 14:15 10,2 C 10,9 C 69 % 1017 hPa 0,0 l/m 4,8 m/s (1 Bft) SW45 215 0,00 min 36,3 klux 4,8 C 4,5 C
13.03.2004 14:20 10,7 C 11,1 C 68 % 1017 hPa 0,0 l/m 2,9 m/s (1 Bft) SW22.5 225 0,00 min 38,2 klux 5,0 C 8,0 C
13.03.2004 14:25 10,8 C 11,2 C 66 % 1017 hPa 0,0 l/m 3,6 m/s (1 Bft) SW45 235 0,00 min 37,3 klux 4,7 C 7,0 C
13.03.2004 14:30 10,6 C 11,4 C 65 % 1017 hPa 0,0 l/m 4,0 m/s (1 Bft) SW67.5 235 0,00 min 31,6 klux 4,3 C 6,2 C
13.03.2004 14:35 10,3 C 11,3 C 64 % 1017 hPa 0,0 l/m 5,3 m/s (1 Bft) SW67.5 235 0,00 min 26,9 klux 3,8 C 4,0 C
13.03.2004 14:40 10,5 C 11,2 C 65 % 1017 hPa 0,0 l/m 4,9 m/s (1 Bft) SW22.5 230 0,00 min 25,0 klux 4,2 C 4,7 C
13.03.2004 14:45 10,4 C 11,3 C 64 % 1017 hPa 0,0 l/m 4,5 m/s (1 Bft) SW22.5 225 0,00 min 28,7 klux 3,9 C 5,2 C
13.03.2004 14:50 10,5 C 11,3 C 64 % 1017 hPa 0,0 l/m 4,3 m/s (1 Bft) SW45 235 0,00 min 28,6 klux 4,0 C 5,5 C
13.03.2004 14:55 10,8 C 11,3 C 65 % 1017 hPa 0,0 l/m 3,6 m/s (1 Bft) SW45 225 0,00 min 24,6 klux 4,5 C 7,0 C
13.03.2004 15:00 10,8 C 11,3 C 65 % 1017 hPa 0,0 l/m 2,0 m/s (1 Bft) S-SW67.5 210 0,00 min 22,2 klux 4,5 C 10,2 C
13.03.2004 15:05 11,0 C 11,2 C 63 % 1017 hPa 0,0 l/m 2,8 m/s (1 Bft) S45 185 0,00 min 22,8 klux 4,2 C 8,6 C
13.03.2004 15:10 10,8 C 11,2 C 65 % 1017 hPa 0,0 l/m 3,6 m/s (1 Bft) S-SW45 205 0,00 min 23,8 klux 4,5 C 7,1 C
13.03.2004 15:15 11,2 C 11,2 C 65 % 1017 hPa 0,0 l/m 2,6 m/s (1 Bft) SW22.5 215 0,00 min 25,2 klux 4,9 C 9,4 C
13.03.2004 15:20 10,9 C 11,5 C 65 % 1017 hPa 0,0 l/m 2,6 m/s (1 Bft) SW22.5 225 0,00 min 32,7 klux 4,6 C 9,0 C
13.03.2004 15:25 11,3 C 11,8 C 64 % 1017 hPa 0,0 l/m 2,1 m/s (1 Bft) S45 190 5,00 min 35,1 klux 4,7 C 10,5 C
13.03.2004 15:30 11,0 C 11,8 C 63 % 1017 hPa 0,0 l/m 3,3 m/s (1 Bft) S45 190 0,00 min 28,7 klux 4,2 C 7,7 C
13.03.2004 15:35 11,0 C 11,9 C 63 % 1017 hPa 0,0 l/m 3,0 m/s (1 Bft) S-SW67.5 210 0,00 min 28,2 klux 4,2 C 8,3 C
13.03.2004 15:40 11,0 C 12,1 C 63 % 1017 hPa 0,0 l/m 2,9 m/s (1 Bft) SW22.5 230 0,00 min 27,1 klux 4,2 C 8,5 C
13.03.2004 15:45 10,7 C 12,1 C 64 % 1017 hPa 0,0 l/m 3,1 m/s (1 Bft) SW45 215 0,00 min 28,6 klux 4,2 C 7,7 C
13.03.2004 15:50 10,7 C 12,3 C 64 % 1017 hPa 0,0 l/m 3,1 m/s (1 Bft) SW45 215 5,00 min 34,5 klux 4,2 C 7,7 C
13.03.2004 15:55 10,8 C 12,5 C 64 % 1017 hPa 0,0 l/m 2,0 m/s (1 Bft) SW45 220 0,00 min 24,9 klux 4,3 C 10,2 C
13.03.2004 16:00 10,5 C 12,4 C 64 % 1017 hPa 0,0 l/m 3,0 m/s (1 Bft) SW22.5 235 0,00 min 27,6 klux 4,0 C 7,7 C
13.03.2004 16:05 10,7 C 12,5 C 64 % 1017 hPa 0,0 l/m 2,8 m/s (1 Bft) S-SW67.5 200 5,00 min 30,7 klux 4,2 C 8,4 C
13.03.2004 16:10 10,7 C 12,7 C 63 % 1017 hPa 0,0 l/m 3,8 m/s (1 Bft) SW45 220 5,00 min 30,7 klux 3,9 C 6,5 C
13.03.2004 16:15 10,7 C 12,7 C 64 % 1017 hPa 0,0 l/m 3,0 m/s (1 Bft) SW45 225 0,00 min 19,6 klux 4,2 C 7,9 C
13.03.2004 16:20 10,7 C 12,3 C 64 % 1017 hPa 0,0 l/m 1,1 m/s (1 Bft) S22.5 185 0,00 min 16,5 klux 4,2 C 10,7 C
13.03.2004 16:25 10,7 C 12,1 C 64 % 1017 hPa 0,0 l/m 3,7 m/s (1 Bft) SW45 225 0,00 min 14,3 klux 4,2 C 6,8 C
13.03.2004 16:30 10,5 C 11,8 C 64 % 1018 hPa 0,0 l/m 2,2 m/s (1 Bft) S45 175 0,00 min 12,0 klux 4,0 C 9,5 C
13.03.2004 16:35 10,4 C 11,6 C 65 % 1018 hPa 0,0 l/m 3,1 m/s (1 Bft) S-SO45 155 0,00 min 12,7 klux 4,1 C 7,5 C
13.03.2004 16:40 10,4 C 11,5 C 65 % 1018 hPa 0,0 l/m 2,8 m/s (1 Bft) S-SW45 195 0,00 min 12,5 klux 4,1 C 8,0 C
13.03.2004 16:45 10,4 C 11,4 C 65 % 1018 hPa 0,0 l/m 2,2 m/s (1 Bft) S-SW67.5 210 0,00 min 16,5 klux 4,1 C 9,4 C
13.03.2004 16:50 10,5 C 11,3 C 64 % 1018 hPa 0,0 l/m 2,3 m/s (1 Bft) SW22.5 215 0,00 min 16,7 klux 4,0 C 9,2 C
13.03.2004 16:55 10,4 C 11,3 C 64 % 1018 hPa 0,0 l/m 1,7 m/s (1 Bft) SW45 225 0,00 min 11,1 klux 3,9 C 10,4 C
13.03.2004 17:00 10,3 C 11,2 C 64 % 1018 hPa 0,0 l/m 2,4 m/s (1 Bft) SW22.5 235 0,00 min 10,9 klux 3,8 C 8,7 C
13.03.2004 17:05 10,3 C 11,1 C 64 % 1018 hPa 0,0 l/m 3,1 m/s (1 Bft) W-SW45 245 0,00 min 9,2 klux 3,8 C 7,3 C
13.03.2004 17:10 10,1 C 10,9 C 64 % 1018 hPa 0,0 l/m 2,9 m/s (1 Bft) SW45 225 0,00 min 10,3 klux 3,6 C 7,4 C
13.03.2004 17:15 10,1 C 10,9 C 64 % 1018 hPa 0,0 l/m 2,2 m/s (1 Bft) SW45 220 0,00 min 9,8 klux 3,6 C 9,0 C
13.03.2004 17:20 10,0 C 10,8 C 64 % 1018 hPa 0,0 l/m 1,9 m/s (1 Bft) SW22.5 215 0,00 min 9,3 klux 3,5 C 9,6 C
13.03.2004 17:25 9,8 C 10,7 C 65 % 1018 hPa 0,0 l/m 4,6 m/s (1 Bft) SW22.5 230 0,00 min 8,58 klux 3,5 C 4,2 C
13.03.2004 17:30 9,8 C 10,6 C 64 % 1018 hPa 0,0 l/m 3,4 m/s (1 Bft) SW45 215 0,00 min 7,34 klux 3,3 C 6,1 C
13.03.2004 17:35 9,7 C 10,5 C 64 % 1018 hPa 0,0 l/m 2,6 m/s (1 Bft) SW45 215 0,00 min 6,88 klux 3,2 C 7,6 C
13.03.2004 17:40 9,6 C 10,4 C 65 % 1018 hPa 0,0 l/m 2,3 m/s (1 Bft) SW22.5 220 0,00 min 4,64 klux 3,4 C 8,3 C
13.03.2004 17:45 9,6 C 10,3 C 65 % 1018 hPa 0,0 l/m 1,3 m/s (1 Bft) S-SW67.5 195 0,00 min 4,20 klux 3,4 C 9,6 C
13.03.2004 17:50 9,4 C 10,2 C 66 % 1018 hPa 0,0 l/m 1,8 m/s (1 Bft) SW45 220 0,00 min 3,81 klux 3,4 C 9,4 C
13.03.2004 17:55 9,3 C 10,0 C 66 % 1018 hPa 0,0 l/m 3,0 m/s (1 Bft) SW22.5 230 0,00 min 2,95 klux 3,3 C 6,4 C
13.03.2004 18:00 9,6 C 10,0 C 66 % 1018 hPa 0,0 l/m 3,1 m/s (1 Bft) SW22.5 220 0,00 min 2,00 klux 3,6 C 6,6 C
13.03.2004 18:05 9,1 C 9,9 C 67 % 1018 hPa 0,0 l/m 2,5 m/s (1 Bft) SW22.5 215 0,00 min 1,62 klux 3,3 C 7,2 C
13.03.2004 18:10 9,0 C 9,8 C 68 % 1019 hPa 0,0 l/m 2,1 m/s (1 Bft) SW22.5 215 0,00 min 1,26 klux 3,4 C 8,0 C
13.03.2004 18:15 8,9 C 9,7 C 69 % 1019 hPa 0,0 l/m 2,2 m/s (1 Bft) S-SW67.5 205 0,00 min 1,05 klux 3,5 C 7,7 C
13.03.2004 18:20 8,8 C 9,6 C 69 % 1019 hPa 0,0 l/m 1,5 m/s (1 Bft) S45 185 0,00 min 774 lux 3,4 C 8,8 C
13.03.2004 18:25 8,7 C 9,6 C 70 % 1019 hPa 0,0 l/m 2,6 m/s (1 Bft) S-SW67.5 210 0,00 min 605 lux 3,5 C 6,5 C
13.03.2004 18:30 8,8 C 9,5 C 69 % 1019 hPa 0,0 l/m 2,5 m/s (1 Bft) S-SW67.5 210 0,00 min 367 lux 3,4 C 7,0 C
13.03.2004 18:35 8,9 C 9,5 C 69 % 1019 hPa 0,0 l/m 2,7 m/s (1 Bft) SW22.5 225 0,00 min 228 lux 3,5 C 6,6 C
13.03.2004 18:40 8,9 C 9,5 C 69 % 1019 hPa 0,0 l/m 4,1 m/s (1 Bft) SW45 225 0,00 min 107 lux 3,5 C 3,9 C
13.03.2004 18:45 8,8 C 9,4 C 69 % 1019 hPa 0,0 l/m 5,1 m/s (1 Bft) SW45 215 0,00 min 61 lux 3,4 C 2,3 C
13.03.2004 18:50 8,6 C 9,3 C 69 % 1019 hPa 0,0 l/m 2,5 m/s (1 Bft) SW45 215 0,00 min 37 lux 3,2 C 6,8 C
13.03.2004 18:55 8,5 C 9,2 C 70 % 1019 hPa 0,0 l/m 2,5 m/s (1 Bft) S-SW45 205 0,00 min 19 lux 3,3 C 6,5 C
13.03.2004 19:00 8,3 C 9,1 C 70 % 1019 hPa 0,0 l/m 2,4 m/s (1 Bft) S45 185 0,00 min 12 lux 3,2 C 6,6 C
13.03.2004 19:05 7,9 C 8,9 C 72 % 1019 hPa 0,0 l/m 2,0 m/s (1 Bft) S-SW45 200 0,00 min 8 lux 3,2 C 7,2 C
13.03.2004 19:10 7,8 C 8,9 C 72 % 1020 hPa 0,0 l/m 0,3 m/s (0 Bft) S-SO22.5 160 0,00 min 4 lux 3,1 C 7,8 C
13.03.2004 19:15 7,6 C 8,7 C 74 % 1020 hPa 0,0 l/m 2,0 m/s (1 Bft) S-SO22.5 160 0,00 min 0 lux 3,3 C 7,0 C
13.03.2004 19:20 7,6 C 8,7 C 75 % 1020 hPa 0,0 l/m 0,1 m/s (0 Bft) S-SO22.5 165 0,00 min 0 lux 3,5 C 7,6 C
13.03.2004 19:25 7,8 C 8,7 C 75 % 1020 hPa 0,0 l/m 2,3 m/s (1 Bft) S67.5 190 0,00 min 0 lux 3,7 C 6,3 C
13.03.2004 19:30 7,9 C 8,7 C 74 % 1020 hPa 0,0 l/m 0,9 m/s (0 Bft) S22.5 175 0,00 min 0 lux 3,6 C 7,9 C
13.03.2004 19:35 7,8 C 8,6 C 74 % 1020 hPa 0,0 l/m 1,2 m/s (1 Bft) S45 185 0,00 min 0 lux 3,5 C 7,8 C
13.03.2004 19:40 7,7 C 8,6 C 74 % 1020 hPa 0,0 l/m 0,1 m/s (0 Bft) SO 140 0,00 min 0 lux 3,4 C 7,7 C
13.03.2004 19:45 7,6 C 8,5 C 74 % 1020 hPa 0,0 l/m 0,2 m/s (0 Bft) S-SO22.5 165 0,00 min 0 lux 3,3 C 7,6 C
13.03.2004 19:50 7,5 C 8,5 C 74 % 1020 hPa 0,0 l/m 1,3 m/s (1 Bft) SW45 220 0,00 min 0 lux 3,2 C 7,5 C
13.03.2004 19:55 7,6 C 8,3 C 74 % 1020 hPa 0,0 l/m 0,7 m/s (0 Bft) SW22.5 225 0,00 min 0 lux 3,3 C 7,6 C
13.03.2004 20:00 7,3 C 8,2 C 74 % 1020 hPa 0,0 l/m 0,9 m/s (0 Bft) SW22.5 215 0,00 min 0 lux 3,0 C 7,3 C
13.03.2004 20:05 7,2 C 8,1 C 74 % 1020 hPa 0,0 l/m 0,3 m/s (0 Bft) S67.5 190 0,00 min 0 lux 2,9 C 7,2 C
13.03.2004 20:10 7,2 C 8,0 C 74 % 1020 hPa 0,0 l/m 1,8 m/s (1 Bft) S-SW67.5 195 0,00 min 0 lux 2,9 C 7,2 C
13.03.2004 20:15 7,0 C 7,9 C 74 % 1020 hPa 0,0 l/m 2,1 m/s (1 Bft) S45 180 0,00 min 0 lux 2,7 C 6,2 C
13.03.2004 20:20 6,8 C 7,8 C 76 % 1020 hPa 0,0 l/m 1,9 m/s (1 Bft) S67.5 190 0,00 min 0 lux 2,9 C 6,3 C
13.03.2004 20:25 6,7 C 7,7 C 76 % 1020 hPa 0,0 l/m 1,2 m/s (1 Bft) SW67.5 220 0,00 min 0 lux 2,8 C 6,7 C
13.03.2004 20:30 6,8 C 7,5 C 77 % 1020 hPa 0,0 l/m 1,0 m/s (0 Bft) SW 230 0,00 min 0 lux 3,1 C 6,8 C
13.03.2004 20:35 6,5 C 7,5 C 77 % 1020 hPa 0,0 l/m 2,2 m/s (1 Bft) SW45 220 0,00 min 0 lux 2,8 C 5,3 C
13.03.2004 20:40 6,4 C 7,3 C 77 % 1020 hPa 0,0 l/m 0,0 m/s (0 Bft) SW 230 0,00 min 0 lux 2,7 C 6,4 C
13.03.2004 20:45 6,2 C 7,2 C 77 % 1020 hPa 0,0 l/m 0,0 m/s (0 Bft) SW 230 0,00 min 0 lux 2,5 C 6,2 C
13.03.2004 20:50 6,3 C 7,1 C 78 % 1020 hPa 0,0 l/m 1,3 m/s (1 Bft) SW 230 0,00 min 0 lux 2,8 C 6,3 C
13.03.2004 20:55 6,6 C 7,1 C 79 % 1021 hPa 0,0 l/m 1,8 m/s (1 Bft) W 270 0,00 min 0 lux 3,2 C 6,6 C
13.03.2004 21:00 6,9 C 7,1 C 78 % 1021 hPa 0,0 l/m 2,4 m/s (1 Bft) W-SW22.5 240 0,00 min 0 lux 3,3 C 5,1 C
13.03.2004 21:05 7,1 C 7,1 C 75 % 1021 hPa 0,0 l/m 2,3 m/s (1 Bft) W-SW22.5 255 0,00 min 0 lux 3,0 C 5,6 C
13.03.2004 21:10 7,0 C 7,1 C 75 % 1021 hPa 0,0 l/m 1,7 m/s (1 Bft) W22.5 260 0,00 min 0 lux 2,9 C 7,0 C
13.03.2004 21:15 6,9 C 7,1 C 76 % 1021 hPa 0,0 l/m 1,5 m/s (1 Bft) W-SW22.5 245 0,00 min 0 lux 3,0 C 6,9 C
13.03.2004 21:20 6,7 C 7,1 C 76 % 1021 hPa 0,0 l/m 1,3 m/s (1 Bft) W22.5 265 0,00 min 0 lux 2,8 C 6,7 C
13.03.2004 21:25 6,2 C 6,9 C 76 % 1021 hPa 0,0 l/m 0,1 m/s (0 Bft) W-SW 240 0,00 min 0 lux 2,3 C 6,2 C
13.03.2004 21:30 5,9 C 6,8 C 77 % 1021 hPa 0,0 l/m 0,0 m/s (0 Bft) W-SW 240 0,00 min 0 lux 2,2 C 5,9 C
13.03.2004 21:35 5,6 C 6,6 C 78 % 1021 hPa 0,0 l/m 0,0 m/s (0 Bft) W-SW 240 0,00 min 0 lux 2,1 C 5,6 C
13.03.2004 21:40 5,3 C 6,5 C 79 % 1021 hPa 0,0 l/m 0,0 m/s (0 Bft) W-SW 240 0,00 min 0 lux 2,0 C 5,3 C
13.03.2004 21:45 5,2 C 6,5 C 80 % 1021 hPa 0,0 l/m 0,0 m/s (0 Bft) W-SW 240 0,00 min 0 lux 2,0 C 5,2 C
13.03.2004 21:50 5,2 C 6,3 C 80 % 1021 hPa 0,0 l/m 0,0 m/s (0 Bft) W-SW 240 0,00 min 0 lux 2,0 C 5,2 C
13.03.2004 21:55 5,0 C 6,2 C 81 % 1021 hPa 0,0 l/m 0,0 m/s (0 Bft) W-SW 240 0,00 min 0 lux 2,0 C 5,0 C
13.03.2004 22:00 4,8 C 6,2 C 83 % 1021 hPa 0,0 l/m 0,0 m/s (0 Bft) W-SW 240 0,00 min 0 lux 2,2 C 4,8 C
13.03.2004 22:05 4,8 C 6,1 C 83 % 1021 hPa 0,0 l/m 0,0 m/s (0 Bft) W-SW 240 0,00 min 0 lux 2,2 C 4,8 C
13.03.2004 22:10 4,7 C 5,9 C 83 % 1021 hPa 0,0 l/m 0,1 m/s (0 Bft) W-SW 240 0,00 min 0 lux 2,1 C 4,7 C
13.03.2004 22:15 4,6 C 5,7 C 83 % 1021 hPa 0,0 l/m 0,0 m/s (0 Bft) W-SW 240 0,00 min 0 lux 2,0 C 4,6 C
13.03.2004 22:20 4,6 C 5,7 C 83 % 1021 hPa 0,0 l/m 0,0 m/s (0 Bft) W-SW 240 0,00 min 0 lux 2,0 C 4,6 C
13.03.2004 22:25 4,4 C 5,5 C 84 % 1021 hPa 0,0 l/m 0,0 m/s (0 Bft) W-SW 240 0,00 min 0 lux 1,9 C 4,4 C
13.03.2004 22:30 4,1 C 5,4 C 84 % 1021 hPa 0,0 l/m 0,0 m/s (0 Bft) W-SW 240 0,00 min 0 lux 1,6 C 4,1 C
13.03.2004 22:35 3,9 C 5,3 C 85 % 1021 hPa 0,0 l/m 0,0 m/s (0 Bft) W-SW 240 0,00 min 0 lux 1,6 C 3,9 C
13.03.2004 22:40 4,0 C 5,2 C 84 % 1021 hPa 0,0 l/m 0,0 m/s (0 Bft) W-SW 240 0,00 min 0 lux 1,5 C 4,0 C
13.03.2004 22:45 3,7 C 5,1 C 85 % 1021 hPa 0,0 l/m 0,0 m/s (0 Bft) W-SW 240 0,00 min 0 lux 1,4 C 3,7 C
13.03.2004 22:50 3,7 C 5,0 C 85 % 1021 hPa 0,0 l/m 0,0 m/s (0 Bft) W-SW 240 0,00 min 0 lux 1,4 C 3,7 C
13.03.2004 22:55 3,6 C 4,9 C 86 % 1021 hPa 0,0 l/m 0,0 m/s (0 Bft) W-SW 240 0,00 min 0 lux 1,5 C 3,6 C
13.03.2004 23:00 3,5 C 4,9 C 86 % 1021 hPa 0,0 l/m 0,0 m/s (0 Bft) W-SW 240 0,00 min 0 lux 1,4 C 3,5 C
13.03.2004 23:05 3,5 C 4,8 C 86 % 1021 hPa 0,0 l/m 0,0 m/s (0 Bft) W-SW 240 0,00 min 0 lux 1,4 C 3,5 C
13.03.2004 23:10 3,7 C 4,7 C 86 % 1021 hPa 0,0 l/m 0,0 m/s (0 Bft) W-SW 240 0,00 min 0 lux 1,6 C 3,7 C
13.03.2004 23:15 3,4 C 4,7 C 86 % 1022 hPa 0,0 l/m 0,0 m/s (0 Bft) W-SW 240 0,00 min 0 lux 1,3 C 3,4 C
13.03.2004 23:20 3,3 C 4,6 C 86 % 1022 hPa 0,0 l/m 0,0 m/s (0 Bft) W-SW 240 0,00 min 0 lux 1,2 C 3,3 C
13.03.2004 23:25 3,2 C 4,6 C 86 % 1022 hPa 0,0 l/m 0,0 m/s (0 Bft) W-SW 240 0,00 min 0 lux 1,1 C 3,2 C
13.03.2004 23:30 3,2 C 4,5 C 86 % 1022 hPa 0,0 l/m 0,0 m/s (0 Bft) W-SW 240 0,00 min 0 lux 1,1 C 3,2 C
13.03.2004 23:35 3,3 C 4,4 C 87 % 1022 hPa 0,0 l/m 0,1 m/s (0 Bft) W-SW 240 0,00 min 0 lux 1,3 C 3,3 C
13.03.2004 23:40 3,0 C 4,4 C 86 % 1022 hPa 0,0 l/m 0,0 m/s (0 Bft) W-SW 240 0,00 min 0 lux 0,9 C 3,0 C
13.03.2004 23:45 3,0 C 4,3 C 86 % 1022 hPa 0,0 l/m 0,0 m/s (0 Bft) W-SW 240 0,00 min 0 lux 0,9 C 3,0 C
13.03.2004 23:50 3,0 C 4,2 C 87 % 1022 hPa 0,0 l/m 0,0 m/s (0 Bft) W-SW 240 0,00 min 0 lux 1,1 C 3,0 C
13.03.2004 23:55 2,8 C 4,1 C 87 % 1022 hPa 0,0 l/m 0,0 m/s (0 Bft) W-SW 240 0,00 min 0 lux 0,9 C 2,8 C
_ Min-Zeit 23:55 23:55 15:05 00:15 - 00:20 - - - - 00:00 10:10
Minimum _ 2,8 C 4,1 C 63 % 1012 hPa - 0,0 m/s (0 Bft) - - - - 0,3 C -2,1 C
_ Max-Zeit 15:25 16:10 07:10 23:15 01:15 10:10 - - 13:15 13:30 13:30 16:20
Maximum _ 11,3 C 12,7 C 89 % 1022 hPa 0,4 l/m 6,6 m/s
SW (4 Bft)
- - 5,00 min 66,7 klux 5,5 C 10,7 C
Durchschnitt _ 6,8 C 7,4 C 79 % 1017 hPa #1,8 l/m 2,0 m/s (2 Bft) SW - #40 min. 7,88 klux 3,3 C 4,9 C